PWSweather.com
Personal Weather Stations
Station Observations
KMIEASTT1
Tawas Bay, East Tawas, MI 48730

Tawas BayEast Tawas, MI 48730

Lat: 44.28, Lon: -83.48

Elevation: 600

Station Type: Davis VantagePro

http://www.tawasbayweather.com

Latest ConditionsUpdated 6:00:14 AM EST Wednesday, Nov 26, 2014
Currently Today's Max Today's Min Today's Average
Temperature 29.0°F-1.7°C 30.4°F-0.9°C 29.0°F-1.7°C 29.6°F-1.3°C
Dew Point 23.0°F-5.0°C 26.1°F-3.3°C 22.5°F-5.3°C 23.5°F-4.7°C
Winds Calm Calm 8.0 mph SW12.9 kmh SW - 2.4 mph 3.9 kmh
Wind Gusts 3.0 mph4.8 kmh 11.0 mph17.7 kmh - -
Humidity 78% 86% 73% 78%
Pressure 30.25 in1024.4 mb 30.26 in1024.7 mb 30.24 in1024.0 mb -
Hour Temp Dew Point Humidity Winds Wind Gusts Pressure Precip Precip Rate Daily Precip Total
06:00 AM 29.0°F-1.7°C 23.0°F-5.0°C 78% Calm Calm 3.0 mph4.8 kmh 30.25 in1024.4 mb 0.00 in0.0 mm 0.00 in/hr0.0 mm/hr 0.00 in0.0 mm
05:45 AM 29.0°F-1.7°C 23.0°F-5.0°C 78% Calm Calm 4.0 mph6.4 kmh 30.25 in1024.4 mb 0.00 in0.0 mm 0.00 in/hr0.0 mm/hr 0.00 in0.0 mm
05:30 AM 29.0°F-1.7°C 23.0°F-5.0°C 78% Calm Calm 3.0 mph4.8 kmh 30.25 in1024.4 mb 0.00 in0.0 mm 0.00 in/hr0.0 mm/hr 0.00 in0.0 mm
05:15 AM 29.0°F-1.7°C 22.7°F-5.2°C 77% 2.0 mph NNW3.2 kmh NNW 3.0 mph4.8 kmh 30.25 in1024.4 mb 0.00 in0.0 mm 0.00 in/hr0.0 mm/hr 0.00 in0.0 mm
05:00 AM 29.2°F-1.6°C 22.9°F-5.1°C 77% 2.0 mph N3.2 kmh N 2.0 mph3.2 kmh 30.25 in1024.4 mb 0.00 in0.0 mm 0.00 in/hr0.0 mm/hr 0.00 in0.0 mm
04:45 AM 29.0°F-1.7°C 22.7°F-5.2°C 77% Calm Calm 4.0 mph6.4 kmh 30.26 in1024.7 mb 0.00 in0.0 mm 0.00 in/hr0.0 mm/hr 0.00 in0.0 mm
04:30 AM 29.3°F-1.5°C 22.7°F-5.2°C 76% 2.0 mph NW3.2 kmh NW 4.0 mph6.4 kmh 30.26 in1024.7 mb 0.00 in0.0 mm 0.00 in/hr0.0 mm/hr 0.00 in0.0 mm
04:15 AM 29.3°F-1.5°C 23.0°F-5.0°C 77% Calm Calm 2.0 mph3.2 kmh 30.26 in1024.7 mb 0.00 in0.0 mm 0.00 in/hr0.0 mm/hr 0.00 in0.0 mm
04:00 AM 29.3°F-1.5°C 23.0°F-5.0°C 77% Calm Calm -- 30.26 in1024.7 mb 0.00 in0.0 mm 0.00 in/hr0.0 mm/hr 0.00 in0.0 mm
03:45 AM 29.3°F-1.5°C 22.7°F-5.2°C 76% Calm Calm 6.0 mph9.7 kmh 30.26 in1024.7 mb 0.00 in0.0 mm 0.00 in/hr0.0 mm/hr 0.00 in0.0 mm
03:30 AM 30.1°F-1.1°C 22.5°F-5.3°C 73% 7.0 mph E11.3 kmh E 9.0 mph14.5 kmh 30.26 in1024.7 mb 0.00 in0.0 mm 0.00 in/hr0.0 mm/hr 0.00 in0.0 mm
03:15 AM 30.2°F-1.0°C 22.6°F-5.2°C 73% 7.0 mph NE11.3 kmh NE 8.0 mph12.9 kmh 30.26 in1024.7 mb 0.00 in0.0 mm 0.00 in/hr0.0 mm/hr 0.00 in0.0 mm
03:00 AM 30.4°F-0.9°C 23.1°F-4.9°C 74% 3.0 mph E4.8 kmh E 11.0 mph17.7 kmh 30.26 in1024.7 mb 0.00 in0.0 mm 0.00 in/hr0.0 mm/hr 0.00 in0.0 mm
02:45 AM 30.3°F-0.9°C 23.3°F-4.8°C 75% 3.0 mph E4.8 kmh E 7.0 mph11.3 kmh 30.26 in1024.7 mb 0.00 in0.0 mm 0.00 in/hr0.0 mm/hr 0.00 in0.0 mm
02:30 AM 30.3°F-0.9°C 23.3°F-4.8°C 75% 5.0 mph NE8.0 kmh NE 10.0 mph16.1 kmh 30.26 in1024.7 mb 0.00 in0.0 mm 0.00 in/hr0.0 mm/hr 0.00 in0.0 mm
02:15 AM 29.6°F-1.3°C 23.6°F-4.7°C 78% 2.0 mph WNW3.2 kmh WNW 3.0 mph4.8 kmh 30.26 in1024.7 mb 0.00 in0.0 mm 0.00 in/hr0.0 mm/hr 0.00 in0.0 mm
02:00 AM 29.6°F-1.3°C 23.6°F-4.7°C 78% 2.0 mph WSW3.2 kmh WSW 3.0 mph4.8 kmh 30.25 in1024.4 mb 0.00 in0.0 mm 0.00 in/hr0.0 mm/hr 0.00 in0.0 mm
01:45 AM 29.8°F-1.2°C 23.8°F-4.6°C 78% 2.0 mph WSW3.2 kmh WSW 4.0 mph6.4 kmh 30.25 in1024.4 mb 0.00 in0.0 mm 0.00 in/hr0.0 mm/hr 0.00 in0.0 mm
01:30 AM 29.7°F-1.3°C 24.0°F-4.4°C 79% 1.0 mph WNW1.6 kmh WNW 3.0 mph4.8 kmh 30.24 in1024.0 mb 0.00 in0.0 mm 0.00 in/hr0.0 mm/hr 0.00 in0.0 mm
01:15 AM 29.7°F-1.3°C 23.4°F-4.8°C 77% Calm Calm 3.0 mph4.8 kmh 30.25 in1024.4 mb 0.00 in0.0 mm 0.00 in/hr0.0 mm/hr 0.00 in0.0 mm
01:00 AM 29.7°F-1.3°C 23.7°F-4.6°C 78% 2.0 mph WSW3.2 kmh WSW 5.0 mph8.0 kmh 30.24 in1024.0 mb 0.00 in0.0 mm 0.00 in/hr0.0 mm/hr 0.00 in0.0 mm
12:45 AM 29.8°F-1.2°C 24.7°F-4.1°C 81% 8.0 mph SW12.9 kmh SW 8.0 mph12.9 kmh 30.24 in1024.0 mb 0.00 in0.0 mm 0.00 in/hr0.0 mm/hr 0.00 in0.0 mm
12:30 AM 29.8°F-1.2°C 25.9°F-3.4°C 85% 3.0 mph WSW4.8 kmh WSW 4.0 mph6.4 kmh 30.24 in1024.0 mb 0.00 in0.0 mm 0.00 in/hr0.0 mm/hr 0.00 in0.0 mm
12:15 AM 29.8°F-1.2°C 26.1°F-3.3°C 86% 5.0 mph WSW8.0 kmh WSW 7.0 mph11.3 kmh 30.24 in1024.0 mb 0.00 in0.0 mm 0.00 in/hr0.0 mm/hr 0.00 in0.0 mm
12:00 AM 29.8°F-1.2°C 26.1°F-3.3°C 86% 4.0 mph WSW6.4 kmh WSW 7.0 mph11.3 kmh 30.24 in1024.0 mb 0.00 in0.0 mm 0.00 in/hr0.0 mm/hr 0.00 in0.0 mm